Time;durP1;ratioP1;P1;durP2;ratioP2;P2;SDS_P1;SDS_P2;PMS_P1;PMS_P2;Temp;Humidity;BMP_temperature;BMP_pressure;BME280_temperature;BME280_humidity;BME280_pressure;Samples;Min_cycle;Max_cycle;Signal;HPM_P1;HPM_P2
2022/12/28 00:00:22;;;;;;;2.58;1.08;;;19.50;56.60;;;;;;5072634;28;20165;-58
2022/12/28 00:02:48;;;;;;;2.72;1.00;;;19.50;56.70;;;;;;5072323;28;20524;-58
2022/12/28 00:05:13;;;;;;;2.72;1.13;;;19.50;56.60;;;;;;5072633;28;20440;-58
2022/12/28 00:07:39;;;;;;;2.72;0.98;;;19.50;56.70;;;;;;5067757;28;20270;-58
2022/12/28 00:10:05;;;;;;;2.33;0.95;;;19.50;56.60;;;;;;5072067;28;20041;-58
2022/12/28 00:12:31;;;;;;;2.20;1.02;;;19.40;56.60;;;;;;5072703;28;20036;-58
2022/12/28 00:14:58;;;;;;;3.97;1.42;;;19.50;56.70;;;;;;5072423;28;20186;-58
2022/12/28 00:17:23;;;;;;;2.58;0.90;;;19.40;56.60;;;;;;5071535;28;20047;-57
2022/12/28 00:19:49;;;;;;;3.42;1.10;;;19.40;56.60;;;;;;5072642;28;20044;-58
2022/12/28 00:22:14;;;;;;;2.03;0.90;;;19.40;56.60;;;;;;5071525;28;20412;-58
2022/12/28 00:24:40;;;;;;;4.15;0.90;;;19.40;56.60;;;;;;5071489;28;20500;-58
2022/12/28 00:27:06;;;;;;;2.05;0.80;;;19.40;56.60;;;;;;5072352;28;20399;-58
2022/12/28 00:29:31;;;;;;;3.40;0.90;;;19.40;56.60;;;;;;5071632;28;20043;-58
2022/12/28 00:31:57;;;;;;;2.78;1.27;;;19.40;56.60;;;;;;5071737;28;20400;-58
2022/12/28 00:34:22;;;;;;;3.90;0.90;;;19.30;56.50;;;;;;5072046;28;20036;-58
2022/12/28 00:36:51;;;;;;;2.22;0.90;;;19.30;56.50;;;;;;5071820;28;20095;-58
2022/12/28 00:39:18;;;;;;;2.38;0.98;;;19.40;56.60;;;;;;5071739;28;20366;-58
2022/12/28 00:41:43;;;;;;;2.95;1.05;;;19.30;56.60;;;;;;5072449;28;20480;-58
2022/12/28 00:44:09;;;;;;;3.92;1.10;;;19.30;56.60;;;;;;5071218;28;20132;-58
2022/12/28 00:46:34;;;;;;;2.25;1.10;;;19.30;56.50;;;;;;5072533;28;20036;-58
2022/12/28 00:49:00;;;;;;;2.28;0.80;;;19.30;56.50;;;;;;5072198;28;20049;-58
2022/12/28 00:51:25;;;;;;;2.90;0.93;;;19.30;56.50;;;;;;5071226;28;20434;-58
2022/12/28 00:53:51;;;;;;;2.70;1.00;;;19.30;56.50;;;;;;5072021;28;20052;-58
2022/12/28 00:56:18;;;;;;;3.05;1.02;;;19.30;56.50;;;;;;5071815;28;20055;-58
2022/12/28 00:58:44;;;;;;;1.85;0.70;;;19.20;56.50;;;;;;5071050;28;20547;-58
2022/12/28 01:01:14;;;;;;;2.70;0.73;;;19.20;56.50;;;;;;5072098;28;20136;-58
2022/12/28 01:03:39;;;;;;;3.22;0.90;;;19.20;56.50;;;;;;5072131;28;20056;-58
2022/12/28 01:06:06;;;;;;;3.28;0.90;;;19.20;56.50;;;;;;5071372;28;20395;-58
2022/12/28 01:08:32;;;;;;;2.75;0.90;;;19.20;56.50;;;;;;5071424;28;20485;-58
2022/12/28 01:10:57;;;;;;;2.33;0.90;;;19.20;56.40;;;;;;5066837;28;20049;-58
2022/12/28 01:13:23;;;;;;;2.63;1.00;;;19.20;56.50;;;;;;5071139;28;20048;-58
2022/12/28 01:15:48;;;;;;;2.28;0.90;;;19.20;56.50;;;;;;5072051;28;20127;-58
2022/12/28 01:18:14;;;;;;;2.38;1.38;;;19.10;56.40;;;;;;5071547;28;20404;-58
2022/12/28 01:20:40;;;;;;;3.08;1.20;;;19.10;56.40;;;;;;5071390;28;20051;-58
2022/12/28 01:23:05;;;;;;;2.13;0.82;;;19.20;56.50;;;;;;5072153;28;20464;-58
2022/12/28 01:25:32;;;;;;;2.03;1.00;;;19.10;56.40;;;;;;5071094;28;20129;-58
2022/12/28 01:27:58;;;;;;;2.10;0.75;;;19.10;56.40;;;;;;5070641;28;20045;-58
2022/12/28 01:30:23;;;;;;;2.60;0.95;;;19.10;56.50;;;;;;5071832;28;20047;-58
2022/12/28 01:32:49;;;;;;;3.13;0.88;;;19.10;56.50;;;;;;5071351;28;20051;-58
2022/12/28 01:35:14;;;;;;;4.47;1.00;;;19.10;56.50;;;;;;5071682;28;20484;-58
2022/12/28 01:37:40;;;;;;;2.22;1.05;;;19.10;56.40;;;;;;5071743;28;20427;-58
2022/12/28 01:40:06;;;;;;;3.20;1.10;;;19.10;56.40;;;;;;5071217;28;20051;-58
2022/12/28 01:42:31;;;;;;;2.35;1.08;;;19.10;56.50;;;;;;5072332;28;20043;-59
2022/12/28 01:44:58;;;;;;;3.33;1.10;;;19.10;56.50;;;;;;5075907;28;20043;-59
2022/12/28 01:47:28;;;;;;;2.20;0.85;;;19.00;56.40;;;;;;5073120;28;20547;-59
2022/12/28 01:50:09;;;;;;;1.50;0.60;;;19.10;56.50;;;;;;5075398;28;20041;-59
2022/12/28 01:52:40;;;;;;;2.78;0.98;;;19.00;56.40;;;;;;5075338;28;20049;-59
2022/12/28 01:55:09;;;;;;;2.42;0.73;;;19.00;56.40;;;;;;5073214;28;20496;-59
2022/12/28 01:57:40;;;;;;;2.80;0.90;;;19.00;56.40;;;;;;5075246;28;20048;-58
2022/12/28 02:00:08;;;;;;;2.60;0.90;;;19.00;56.40;;;;;;5073932;28;20048;-59
2022/12/28 02:02:34;;;;;;;1.80;0.80;;;19.00;56.40;;;;;;5073321;28;20041;-59
2022/12/28 02:05:00;;;;;;;3.13;1.30;;;19.00;56.80;;;;;;5075195;28;20127;-60
2022/12/28 02:07:55;;;;;;;2.45;0.75;;;19.00;56.40;;;;;;5073584;28;20089;-59
2022/12/28 02:10:21;;;;;;;2.25;0.90;;;19.00;56.40;;;;;;5073456;28;20110;-59
2022/12/28 02:12:46;;;;;;;2.15;0.80;;;19.00;56.50;;;;;;5073952;28;20032;-59
2022/12/28 02:15:12;;;;;;;2.22;0.88;;;19.00;56.40;;;;;;5068334;28;20059;-59
2022/12/28 02:17:38;;;;;;;2.65;0.70;;;19.00;56.40;;;;;;5075048;28;20040;-59
2022/12/28 02:20:05;;;;;;;2.60;0.90;;;19.00;56.40;;;;;;5074794;28;20059;-59
2022/12/28 02:23:05;;;;;;;1.88;0.80;;;19.00;56.40;;;;;;5072734;28;20076;-59
2022/12/28 02:25:53;;;;;;;1.83;0.77;;;19.00;56.30;;;;;;5070192;28;20140;-59
2022/12/28 02:28:45;;;;;;;3.15;1.02;;;19.00;56.40;;;;;;5073654;28;20480;-59
2022/12/28 02:31:14;;;;;;;2.05;0.95;;;19.00;56.30;;;;;;5072466;28;20040;-59
2022/12/28 02:33:57;;;;;;;1.33;0.65;;;19.00;56.40;;;;;;5073567;28;20488;-59
2022/12/28 02:36:27;;;;;;;2.95;0.95;;;19.00;56.40;;;;;;5072389;28;20044;-59
2022/12/28 02:39:14;;;;;;;1.20;0.75;;;19.00;56.30;;;;;;5074445;28;20079;-59
2022/12/28 02:41:39;;;;;;;2.00;0.93;;;19.00;56.40;;;;;;5073500;28;20123;-59
2022/12/28 02:44:05;;;;;;;1.73;0.70;;;19.00;56.40;;;;;;5073784;28;20181;-59
2022/12/28 02:52:17;;;;;;;1.60;0.60;;;19.00;56.40;;;;;;5073708;28;20056;-59
2022/12/28 02:57:50;;;;;;;3.40;0.73;;;19.00;56.30;;;;;;5072653;28;20076;-59
2022/12/28 03:00:19;;;;;;;1.05;0.70;;;19.00;56.30;;;;;;5071969;28;20373;-59
2022/12/28 03:03:10;;;;;;;1.88;0.80;;;19.00;57.00;;;;;;5052683;28;20044;-59
2022/12/28 03:09:20;;;;;;;1.98;0.68;;;19.00;56.20;;;;;;5040020;28;20053;-59
2022/12/28 03:12:05;;;;;;;1.27;0.77;;;19.00;56.20;;;;;;5033270;28;20055;-59
2022/12/28 03:14:42;;;;;;;1.48;0.70;;;19.10;56.20;;;;;;5061736;28;20052;-59
2022/12/28 03:31:06;;;;;;;2.03;0.82;;;19.10;56.20;;;;;;5033770;28;20049;-59
2022/12/28 03:33:45;;;;;;;1.92;0.80;;;19.10;56.20;;;;;;5038776;28;20162;-59
2022/12/28 03:36:19;;;;;;;1.52;0.70;;;19.10;56.20;;;;;;5051692;28;20489;-59
2022/12/28 03:39:15;;;;;;;2.42;0.70;;;19.10;56.20;;;;;;5053540;28;20041;-59
2022/12/28 03:41:48;;;;;;;1.35;0.70;;;19.10;56.20;;;;;;5052296;28;20050;-59
2022/12/28 03:44:21;;;;;;;1.98;0.68;;;19.20;56.20;;;;;;5051893;28;20071;-60
2022/12/28 03:46:56;;;;;;;1.88;0.60;;;19.10;56.20;;;;;;5045888;28;20033;-59
2022/12/28 03:49:24;;;;;;;2.17;0.80;;;19.20;56.20;;;;;;5051774;28;20048;-59
2022/12/28 03:51:50;;;;;;;1.98;0.70;;;19.20;56.20;;;;;;5052884;28;20472;-59
2022/12/28 03:54:16;;;;;;;1.65;0.70;;;19.20;56.10;;;;;;5050791;28;20563;-60
2022/12/28 03:56:45;;;;;;;1.80;0.63;;;19.20;56.10;;;;;;5034949;28;20508;-59
2022/12/28 03:59:11;;;;;;;1.73;0.65;;;19.20;56.10;;;;;;5058647;28;20048;-59
2022/12/28 04:01:36;;;;;;;1.35;0.60;;;19.30;56.10;;;;;;5072244;28;20098;-59
2022/12/28 04:04:02;;;;;;;1.80;0.70;;;19.30;56.10;;;;;;5072887;28;20080;-59
2022/12/28 04:06:27;;;;;;;1.63;0.60;;;19.30;56.10;;;;;;5070929;28;20040;-59
2022/12/28 04:08:53;;;;;;;1.80;0.75;;;19.30;56.10;;;;;;5072170;28;20040;-59
2022/12/28 04:11:18;;;;;;;2.22;0.70;;;19.30;56.00;;;;;;5072173;28;20037;-60
2022/12/28 04:13:44;;;;;;;2.58;0.70;;;19.30;56.10;;;;;;5072740;28;20065;-59
2022/12/28 04:16:11;;;;;;;2.00;0.80;;;19.30;56.00;;;;;;5071616;28;20043;-59
2022/12/28 04:18:37;;;;;;;1.48;0.70;;;19.30;56.00;;;;;;5072845;28;20049;-59
2022/12/28 04:21:02;;;;;;;1.17;0.50;;;19.30;56.00;;;;;;5072757;28;20503;-59
2022/12/28 04:23:29;;;;;;;1.05;0.50;;;19.30;56.00;;;;;;5070266;28;20548;-60
2022/12/28 04:26:03;;;;;;;1.58;0.63;;;19.40;56.00;;;;;;5071657;28;20127;-59
2022/12/28 04:28:29;;;;;;;2.58;0.70;;;19.40;56.00;;;;;;5070400;28;20460;-60
2022/12/28 04:30:55;;;;;;;1.52;0.50;;;19.40;56.00;;;;;;5072575;28;20543;-60
2022/12/28 04:33:21;;;;;;;1.48;0.75;;;19.40;56.00;;;;;;5072379;28;20167;-60
2022/12/28 04:35:46;;;;;;;1.40;0.60;;;19.40;56.00;;;;;;5071946;28;20044;-59
2022/12/28 04:38:12;;;;;;;1.45;0.55;;;19.40;56.00;;;;;;5072209;28;20128;-60
2022/12/28 04:40:37;;;;;;;0.93;0.50;;;19.50;56.70;;;;;;5072477;28;20048;-60
2022/12/28 04:43:03;;;;;;;0.93;0.50;;;19.50;56.00;;;;;;5071886;28;20124;-60
2022/12/28 04:45:28;;;;;;;1.75;0.60;;;19.50;56.10;;;;;;5072378;28;20048;-59
2022/12/28 04:47:57;;;;;;;1.00;0.57;;;19.50;56.00;;;;;;5072386;28;20041;-60
2022/12/28 04:50:23;;;;;;;1.77;0.70;;;19.50;56.00;;;;;;5071331;28;20076;-60
2022/12/28 04:52:49;;;;;;;1.60;0.68;;;19.50;56.00;;;;;;5072426;28;20041;-60
2022/12/28 04:55:14;;;;;;;2.03;0.63;;;19.50;55.90;;;;;;5072055;28;20044;-60
2022/12/28 04:57:42;;;;;;;1.25;0.52;;;19.50;55.90;;;;;;5071319;28;20498;-59
2022/12/28 05:00:09;;;;;;;0.55;0.43;;;19.60;56.00;;;;;;5071231;28;20072;-60
2022/12/28 05:02:34;;;;;;;1.55;0.52;;;19.60;55.90;;;;;;5051889;28;20090;-60
2022/12/28 05:05:00;;;;;;;1.08;0.60;;;19.60;55.90;;;;;;5050552;28;20048;-60
2022/12/28 05:07:26;;;;;;;1.58;0.60;;;19.60;55.90;;;;;;5051218;28;20105;-60
2022/12/28 05:09:52;;;;;;;1.05;0.50;;;19.60;55.90;;;;;;5052115;28;20045;-60
2022/12/28 05:12:17;;;;;;;1.20;0.50;;;19.60;55.90;;;;;;5051097;28;20547;-60
2022/12/28 05:14:43;;;;;;;1.67;0.50;;;19.60;55.90;;;;;;5051642;28;20385;-59
2022/12/28 05:17:09;;;;;;;1.65;0.52;;;19.60;55.90;;;;;;5052125;28;20049;-60
2022/12/28 05:19:34;;;;;;;1.98;0.60;;;19.60;55.90;;;;;;5055533;28;20040;-59
2022/12/28 05:22:00;;;;;;;0.65;0.40;;;19.60;55.90;;;;;;5055968;28;20476;-59
2022/12/28 05:24:25;;;;;;;1.42;0.52;;;19.60;55.90;;;;;;5055380;28;20098;-59
2022/12/28 05:26:51;;;;;;;0.77;0.50;;;19.60;55.80;;;;;;5055434;28;20041;-59
2022/12/28 05:29:17;;;;;;;0.70;0.45;;;19.70;55.90;;;;;;5055842;28;20037;-60
2022/12/28 05:31:42;;;;;;;1.45;0.60;;;19.70;55.90;;;;;;5055112;28;20048;-60
2022/12/28 05:34:08;;;;;;;0.93;0.40;;;19.60;55.80;;;;;;5054801;28;20056;-59
2022/12/28 05:36:36;;;;;;;1.05;0.50;;;19.70;55.90;;;;;;5055689;28;20048;-59
2022/12/28 05:39:02;;;;;;;0.88;0.40;;;19.70;55.90;;;;;;5054866;28;20044;-59
2022/12/28 05:41:28;;;;;;;1.80;0.50;;;19.70;55.90;;;;;;5055232;28;20072;-59
2022/12/28 05:43:54;;;;;;;2.28;0.60;;;19.70;55.90;;;;;;5055288;28;20060;-59
2022/12/28 05:46:30;;;;;;;1.67;0.50;;;19.70;55.90;;;;;;5070045;28;20090;-59
2022/12/28 05:48:56;;;;;;;0.65;0.40;;;19.70;55.90;;;;;;5075640;28;20036;-60
2022/12/28 05:51:24;;;;;;;0.80;0.47;;;19.70;55.90;;;;;;5074181;28;20382;-60
2022/12/28 05:53:49;;;;;;;1.08;0.65;;;19.70;55.80;;;;;;5074650;28;20041;-60
2022/12/28 05:56:17;;;;;;;0.93;0.32;;;19.70;55.80;;;;;;5075168;28;20048;-59
2022/12/28 05:58:43;;;;;;;1.73;0.50;;;19.70;55.80;;;;;;5075709;28;20079;-59
2022/12/28 06:01:16;;;;;;;1.27;0.47;;;19.70;55.90;;;;;;5073547;28;20041;-59
2022/12/28 06:03:42;;;;;;;0.85;0.55;;;19.80;55.90;;;;;;5075356;28;20040;-59
2022/12/28 06:06:15;;;;;;;0.70;0.40;;;19.80;55.80;;;;;;5075448;28;20120;-59
2022/12/28 06:08:42;;;;;;;0.95;0.40;;;19.80;55.80;;;;;;5071307;28;20474;-59
2022/12/28 06:11:09;;;;;;;1.60;0.43;;;19.80;55.80;;;;;;5074795;28;20044;-58
2022/12/28 06:13:35;;;;;;;2.33;0.60;;;19.80;55.90;;;;;;5074665;28;20056;-59
2022/12/28 06:16:17;;;;;;;1.52;0.40;;;19.80;55.80;;;;;;5055899;28;20053;-59
2022/12/28 06:18:43;;;;;;;0.73;0.50;;;19.80;55.80;;;;;;5034429;28;20076;-59
2022/12/28 06:21:13;;;;;;;1.20;0.40;;;19.80;55.80;;;;;;5062887;28;20044;-59
2022/12/28 06:23:39;;;;;;;0.70;0.40;;;19.80;55.80;;;;;;5073725;28;20040;-59
2022/12/28 06:26:05;;;;;;;1.10;0.50;;;19.80;55.80;;;;;;5075095;28;20121;-59
2022/12/28 06:28:31;;;;;;;0.43;0.32;;;19.80;55.80;;;;;;5073430;28;20119;-58
2022/12/28 06:31:04;;;;;;;1.27;0.43;;;19.80;55.70;;;;;;5075031;28;20080;-58
2022/12/28 06:33:30;;;;;;;1.17;0.60;;;19.80;56.40;;;;;;5074219;28;20400;-59
2022/12/28 06:35:56;;;;;;;0.47;0.30;;;19.80;55.80;;;;;;5074010;28;20048;-59
2022/12/28 06:38:21;;;;;;;0.70;0.30;;;19.90;55.80;;;;;;5074568;28;20032;-59
2022/12/28 06:40:47;;;;;;;1.30;0.43;;;19.90;55.80;;;;;;5074597;28;20384;-59
2022/12/28 06:43:12;;;;;;;1.27;0.43;;;19.90;55.70;;;;;;5073706;28;20044;-58
2022/12/28 06:45:38;;;;;;;2.58;0.50;;;19.90;55.60;;;;;;5074616;28;20172;-58
2022/12/28 06:48:04;;;;;;;2.90;0.50;;;19.90;55.60;;;;;;5074428;28;20048;-59
2022/12/28 06:50:29;;;;;;;1.38;0.40;;;20.00;55.60;;;;;;5073544;28;20496;-59
2022/12/28 06:52:55;;;;;;;1.42;0.35;;;20.00;55.50;;;;;;5074381;28;20383;-58
2022/12/28 06:55:21;;;;;;;0.63;0.40;;;20.00;55.40;;;;;;5074382;28;20063;-59
2022/12/28 06:57:46;;;;;;;1.10;0.40;;;20.00;55.40;;;;;;5073654;28;20036;-59
2022/12/28 07:00:12;;;;;;;0.60;0.40;;;20.00;55.40;;;;;;5073849;28;20097;-59
2022/12/28 07:02:38;;;;;;;1.25;0.50;;;20.10;55.40;;;;;;5074190;28;20041;-59
2022/12/28 07:05:03;;;;;;;2.30;0.40;;;20.10;55.40;;;;;;5073561;28;20041;-62
2022/12/28 07:07:29;;;;;;;1.85;0.43;;;20.10;55.40;;;;;;5073796;28;20040;-59
2022/12/28 07:09:55;;;;;;;2.53;0.40;;;20.10;55.50;;;;;;5073906;28;20090;-59
2022/12/28 07:12:20;;;;;;;2.08;0.50;;;20.10;55.70;;;;;;5072756;28;20037;-59
2022/12/28 07:14:46;;;;;;;0.85;0.38;;;20.20;55.80;;;;;;5073938;28;20411;-60
2022/12/28 07:17:11;;;;;;;1.05;0.52;;;20.20;55.80;;;;;;5073268;28;20452;-58
2022/12/28 07:19:37;;;;;;;2.45;0.40;;;20.20;55.80;;;;;;5073923;28;20037;-59
2022/12/28 07:22:02;;;;;;;1.95;0.30;;;20.20;55.80;;;;;;5073885;28;20043;-59
2022/12/28 07:24:28;;;;;;;1.50;0.40;;;20.20;55.90;;;;;;5067301;28;20089;-59
2022/12/28 07:26:54;;;;;;;1.00;0.40;;;20.30;55.90;;;;;;5073756;28;20071;-59
2022/12/28 07:29:19;;;;;;;1.33;0.50;;;20.30;55.90;;;;;;5073711;28;20071;-59
2022/12/28 07:31:45;;;;;;;4.07;0.50;;;20.30;55.90;;;;;;5066742;28;20033;-58
2022/12/28 07:34:11;;;;;;;1.10;0.40;;;20.30;56.00;;;;;;5053208;28;20472;-58
2022/12/28 07:36:36;;;;;;;2.00;0.40;;;20.30;55.90;;;;;;5053603;28;20135;-59
2022/12/28 07:39:02;;;;;;;0.70;0.30;;;20.30;55.90;;;;;;5052473;28;20029;-59
2022/12/28 07:41:29;;;;;;;2.47;0.50;;;20.30;55.80;;;;;;5052506;28;20488;-58
2022/12/28 07:43:55;;;;;;;2.97;0.70;;;20.30;55.90;;;;;;5052232;28;20488;-58
2022/12/28 07:46:26;;;;;;;2.10;0.40;;;20.30;55.90;;;;;;5051190;28;20083;-59
2022/12/28 07:48:52;;;;;;;2.72;0.45;;;20.40;56.00;;;;;;5052912;28;20041;-59
2022/12/28 07:51:18;;;;;;;4.00;0.60;;;20.30;55.90;;;;;;5052839;28;20033;-59
2022/12/28 07:53:47;;;;;;;1.35;0.40;;;20.40;56.10;;;;;;5052508;28;20067;-59
2022/12/28 07:56:12;;;;;;;1.77;0.60;;;20.40;56.20;;;;;;5052777;28;20045;-59
2022/12/28 07:58:38;;;;;;;1.92;0.50;;;20.40;56.20;;;;;;5052987;28;20056;-58
2022/12/28 08:01:11;;;;;;;2.05;0.75;;;20.40;56.30;;;;;;5050908;28;20416;-58
2022/12/28 08:03:37;;;;;;;1.48;0.43;;;20.40;56.40;;;;;;5053063;28;20040;-58
2022/12/28 08:06:07;;;;;;;1.00;0.40;;;20.40;56.40;;;;;;5052695;28;20052;-58
2022/12/28 08:08:34;;;;;;;5.57;0.63;;;20.40;56.40;;;;;;5051475;28;20214;-58
2022/12/28 08:11:09;;;;;;;1.83;0.50;;;20.50;56.50;;;;;;5052829;28;20033;-58
2022/12/28 08:13:35;;;;;;;2.03;0.47;;;20.50;56.50;;;;;;5051902;28;20064;-58
2022/12/28 08:16:01;;;;;;;2.67;0.50;;;20.50;56.60;;;;;;5052405;28;20057;-58
2022/12/28 08:18:27;;;;;;;2.10;0.50;;;20.50;56.60;;;;;;5051702;28;20116;-59
2022/12/28 08:20:53;;;;;;;0.70;0.40;;;20.50;56.60;;;;;;5051442;28;20132;-60
2022/12/28 08:23:18;;;;;;;1.25;0.43;;;20.50;56.60;;;;;;5051902;28;20041;-59
2022/12/28 08:25:44;;;;;;;1.25;0.43;;;20.50;56.60;;;;;;5068680;28;20090;-59
2022/12/28 08:28:09;;;;;;;1.30;0.77;;;20.50;56.60;;;;;;5071192;28;20040;-59
2022/12/28 08:30:35;;;;;;;1.77;0.45;;;20.50;56.60;;;;;;5052976;28;20468;-59
2022/12/28 08:33:00;;;;;;;0.80;0.50;;;20.50;56.60;;;;;;5052521;28;20059;-59
2022/12/28 08:35:26;;;;;;;2.08;0.63;;;20.50;56.60;;;;;;5051011;28;20139;-59
2022/12/28 08:37:54;;;;;;;1.25;0.50;;;20.50;56.60;;;;;;5052066;28;20044;-59
2022/12/28 08:40:21;;;;;;;1.73;0.60;;;20.50;56.70;;;;;;5050351;28;20479;-60
2022/12/28 08:42:47;;;;;;;1.45;0.50;;;20.50;56.60;;;;;;5051623;28;20125;-59
2022/12/28 08:45:12;;;;;;;1.33;0.47;;;20.50;57.30;;;;;;5051797;28;20116;-59
2022/12/28 08:47:38;;;;;;;0.98;0.60;;;20.50;56.60;;;;;;5051660;28;20556;-60
2022/12/28 08:50:04;;;;;;;2.30;0.60;;;20.60;56.70;;;;;;5050999;28;20439;-60
2022/12/28 08:52:30;;;;;;;2.15;0.60;;;20.50;56.60;;;;;;5051296;28;20068;-60
2022/12/28 08:54:56;;;;;;;0.70;0.40;;;20.60;56.70;;;;;;5051647;28;20460;-59
2022/12/28 08:57:21;;;;;;;1.83;0.47;;;20.50;56.70;;;;;;5050732;28;20045;-59
2022/12/28 08:59:47;;;;;;;1.42;0.40;;;20.50;56.70;;;;;;5051902;28;20049;-60
2022/12/28 09:02:12;;;;;;;2.63;0.60;;;20.50;56.70;;;;;;5051369;28;20124;-60
2022/12/28 09:04:38;;;;;;;1.65;0.55;;;20.50;56.70;;;;;;5049831;28;20082;-60
2022/12/28 09:07:03;;;;;;;2.05;0.50;;;20.50;56.70;;;;;;5052091;28;20048;-60
2022/12/28 09:09:29;;;;;;;2.95;0.50;;;20.50;56.70;;;;;;5051708;28;20047;-59
2022/12/28 09:11:54;;;;;;;1.38;0.60;;;20.50;56.80;;;;;;5051513;28;20040;-59
2022/12/28 09:14:20;;;;;;;1.92;0.50;;;20.50;56.70;;;;;;5051678;28;20060;-59
2022/12/28 09:16:45;;;;;;;1.20;0.50;;;20.50;56.70;;;;;;5051431;28;20029;-58
2022/12/28 09:19:13;;;;;;;3.67;0.60;;;20.50;56.80;;;;;;5051656;28;20556;-60
2022/12/28 09:21:38;;;;;;;1.93;0.53;;;20.50;56.80;;;;;;5051741;28;20103;-59
2022/12/28 09:24:04;;;;;;;2.70;0.40;;;20.50;56.90;;;;;;5055760;28;20040;-59
2022/12/28 09:26:31;;;;;;;1.65;0.40;;;20.40;56.90;;;;;;5071645;28;20045;-60
2022/12/28 09:29:01;;;;;;;3.50;0.50;;;20.40;57.00;;;;;;5070694;28;20128;-59
2022/12/28 09:31:28;;;;;;;1.67;0.50;;;20.40;57.00;;;;;;5065861;28;20044;-59
2022/12/28 09:34:03;;;;;;;0.73;0.32;;;20.40;57.10;;;;;;5071912;28;20083;-59
2022/12/28 09:36:42;;;;;;;1.35;0.40;;;20.30;57.20;;;;;;5071646;28;20448;-59
2022/12/28 09:39:17;;;;;;;2.40;0.40;;;20.30;57.20;;;;;;5070567;28;20048;-59
2022/12/28 09:41:52;;;;;;;6.07;0.40;;;20.30;57.30;;;;;;5072005;28;20048;-59
2022/12/28 09:44:54;;;;;;;5.05;0.50;;;20.20;57.20;;;;;;5070723;28;20135;-59
2022/12/28 09:47:20;;;;;;;2.55;0.40;;;20.20;57.20;;;;;;5072115;28;20454;-60
2022/12/28 09:50:06;;;;;;;2.80;0.50;;;20.20;57.20;;;;;;5071496;28;20488;-60
2022/12/28 09:52:41;;;;;;;3.35;0.40;;;20.20;57.20;;;;;;5069961;28;20049;-60
2022/12/28 09:55:13;;;;;;;0.73;0.40;;;20.10;57.10;;;;;;5072345;28;20055;-60
2022/12/28 09:57:42;;;;;;;2.50;0.50;;;20.10;57.10;;;;;;5071090;28;20044;-60
2022/12/28 10:00:17;;;;;;;1.13;0.40;;;20.10;57.10;;;;;;5070389;28;20049;-60
2022/12/28 10:02:43;;;;;;;1.33;0.47;;;20.10;57.10;;;;;;5070931;28;20052;-60
2022/12/28 10:05:11;;;;;;;1.70;0.40;;;20.10;57.10;;;;;;5075027;28;20041;-60
2022/12/28 10:07:36;;;;;;;1.77;0.40;;;20.00;57.10;;;;;;5073581;28;20102;-60
2022/12/28 10:10:02;;;;;;;2.35;0.50;;;20.00;57.00;;;;;;5075651;28;20036;-60
2022/12/28 10:12:28;;;;;;;1.85;0.40;;;20.00;57.00;;;;;;5075390;28;20313;-60
2022/12/28 10:14:53;;;;;;;2.63;0.40;;;20.00;56.90;;;;;;5074479;28;20045;-60
2022/12/28 10:17:21;;;;;;;1.90;0.50;;;20.00;56.80;;;;;;5074217;28;20476;-60
2022/12/28 10:19:47;;;;;;;0.77;0.30;;;20.00;56.80;;;;;;5075344;28;20101;-60
2022/12/28 10:22:15;;;;;;;3.50;0.45;;;20.00;56.90;;;;;;5073409;28;20115;-61
2022/12/28 10:24:41;;;;;;;1.83;0.40;;;20.00;57.00;;;;;;5074212;28;20045;-61
2022/12/28 10:27:11;;;;;;;0.93;0.30;;;20.00;57.30;;;;;;5073377;28;20040;-60
2022/12/28 10:29:37;;;;;;;2.40;0.60;;;20.00;57.40;;;;;;5075266;28;20044;-60
2022/12/28 10:32:05;;;;;;;0.55;0.30;;;19.90;57.50;;;;;;5075468;28;20135;-59
2022/12/28 10:34:32;;;;;;;2.03;0.40;;;20.00;57.60;;;;;;5074078;28;20044;-60
2022/12/28 10:37:23;;;;;;;1.60;0.50;;;20.00;57.70;;;;;;5075425;28;20115;-60
2022/12/28 10:39:50;;;;;;;2.75;0.40;;;20.00;57.60;;;;;;5065095;28;20060;-60
2022/12/28 10:42:24;;;;;;;1.38;0.38;;;20.00;57.70;;;;;;5049698;28;20124;-60
2022/12/28 10:44:50;;;;;;;0.57;0.30;;;20.00;57.80;;;;;;5051127;28;20037;-61
2022/12/28 10:47:24;;;;;;;1.77;0.40;;;20.00;57.90;;;;;;5037073;28;20055;-61
2022/12/28 10:49:50;;;;;;;1.05;0.30;;;20.00;57.90;;;;;;5020331;28;20120;-62
2022/12/28 10:52:15;;;;;;;1.58;0.35;;;20.00;57.90;;;;;;5054874;28;20073;-61
2022/12/28 10:54:41;;;;;;;0.73;0.30;;;20.00;57.90;;;;;;5054980;28;20079;-62
2022/12/28 10:57:25;;;;;;;0.77;0.30;;;20.00;57.90;;;;;;5054317;28;20212;-61
2022/12/28 10:59:50;;;;;;;1.90;0.40;;;20.00;57.90;;;;;;5053116;28;20073;-57
2022/12/28 11:02:19;;;;;;;0.57;0.30;;;20.00;57.80;;;;;;5053517;28;20146;-57
2022/12/28 11:04:56;;;;;;;2.03;0.40;;;20.00;57.80;;;;;;5054650;28;20069;-57
2022/12/28 11:07:30;;;;;;;0.52;0.30;;;20.00;57.70;;;;;;5054279;28;20335;-58
2022/12/28 11:10:27;;;;;;;1.10;0.68;;;20.00;57.70;;;;;;5053483;28;20419;-57
2022/12/28 11:12:54;;;;;;;1.63;0.50;;;20.00;57.60;;;;;;5054591;28;20101;-57
2022/12/28 11:15:24;;;;;;;2.20;0.38;;;20.00;57.70;;;;;;5052584;28;20075;-57
2022/12/28 11:17:55;;;;;;;0.77;0.40;;;20.00;57.60;;;;;;5053722;28;20111;-57
2022/12/28 11:20:23;;;;;;;2.05;0.47;;;20.00;57.60;;;;;;5032391;28;20113;-59
2022/12/28 11:22:49;;;;;;;0.50;0.40;;;20.00;57.60;;;;;;5043900;28;20041;-59
2022/12/28 11:25:16;;;;;;;1.80;0.50;;;20.00;57.70;;;;;;5073381;28;20041;-58
2022/12/28 11:27:41;;;;;;;0.63;0.30;;;20.00;58.50;;;;;;5036351;28;20069;-58
2022/12/28 11:30:12;;;;;;;1.58;0.50;;;20.00;57.80;;;;;;5057068;28;20072;-58
2022/12/28 11:32:41;;;;;;;1.48;0.32;;;20.00;57.90;;;;;;5050731;28;20378;-58
2022/12/28 11:35:07;;;;;;;0.77;0.38;;;20.00;58.00;;;;;;5052094;28;20510;-58
2022/12/28 11:37:33;;;;;;;0.47;0.30;;;20.00;58.00;;;;;;5051507;28;20044;-58
2022/12/28 11:39:58;;;;;;;1.58;0.40;;;20.00;58.00;;;;;;5053892;28;20400;-59
2022/12/28 11:42:33;;;;;;;0.52;0.30;;;20.00;58.10;;;;;;5047889;28;20048;-58
2022/12/28 11:45:03;;;;;;;1.05;0.40;;;20.00;58.00;;;;;;5053244;28;20037;-58
2022/12/28 11:47:32;;;;;;;0.50;0.38;;;20.00;58.00;;;;;;5053397;28;20053;-58
2022/12/28 11:50:37;;;;;;;2.20;0.40;;;20.00;58.10;;;;;;5051834;28;20045;-58
2022/12/28 11:53:03;;;;;;;0.82;0.40;;;20.00;58.10;;;;;;5052954;28;20052;-59
2022/12/28 11:55:37;;;;;;;1.33;0.40;;;20.00;58.10;;;;;;5051903;28;20103;-59
2022/12/28 11:58:40;;;;;;;1.20;0.50;;;20.00;58.10;;;;;;5052377;28;20048;-59
2022/12/28 12:01:34;;;;;;;1.83;0.50;;;20.10;58.20;;;;;;5053585;28;20091;-58
2022/12/28 12:03:59;;;;;;;1.65;0.30;;;20.00;58.10;;;;;;5044972;28;20374;-59
2022/12/28 12:07:00;;;;;;;0.77;0.30;;;20.00;58.90;;;;;;5052476;28;20504;-58
2022/12/28 12:09:37;;;;;;;0.85;0.38;;;20.10;58.20;;;;;;5052847;28;20049;-58
2022/12/28 12:12:14;;;;;;;0.70;0.45;;;20.10;58.20;;;;;;5053534;28;20156;-59
2022/12/28 12:14:48;;;;;;;2.60;0.60;;;20.10;58.20;;;;;;5052261;28;20053;-59
2022/12/28 12:17:38;;;;;;;1.05;0.40;;;20.10;58.20;;;;;;5051810;28;20053;-59
2022/12/28 12:20:37;;;;;;;2.15;0.40;;;20.10;58.20;;;;;;5051223;28;20040;-59
2022/12/28 12:23:05;;;;;;;0.85;0.30;;;20.10;58.20;;;;;;5052377;28;20037;-59
2022/12/28 12:25:35;;;;;;;1.02;0.35;;;20.10;58.30;;;;;;5051747;28;20102;-59
2022/12/28 12:28:06;;;;;;;2.78;0.50;;;20.10;58.30;;;;;;5050467;28;20048;-60
2022/12/28 12:30:31;;;;;;;2.67;0.43;;;20.10;58.30;;;;;;5035077;28;20041;-59
2022/12/28 12:33:09;;;;;;;1.45;0.38;;;20.10;58.30;;;;;;5051973;28;20122;-59
2022/12/28 12:35:45;;;;;;;0.80;0.40;;;20.10;58.30;;;;;;5034810;28;20044;-59
2022/12/28 12:38:35;;;;;;;0.90;0.30;;;20.10;58.20;;;;;;5054769;28;20044;-59
2022/12/28 12:41:22;;;;;;;0.93;0.40;;;20.10;58.30;;;;;;5054436;28;20047;-59
2022/12/28 12:44:06;;;;;;;1.17;0.40;;;20.10;58.30;;;;;;5057598;28;20041;-59
2022/12/28 12:46:43;;;;;;;0.90;0.50;;;20.10;58.30;;;;;;5059209;28;20048;-59
2022/12/28 12:49:27;;;;;;;1.80;0.60;;;20.20;58.40;;;;;;5054610;28;20039;-60
2022/12/28 12:52:19;;;;;;;0.80;0.30;;;20.20;58.40;;;;;;5053840;28;20045;-60
2022/12/28 12:54:47;;;;;;;1.80;0.40;;;20.20;58.50;;;;;;5057769;28;20072;-60
2022/12/28 12:57:15;;;;;;;;;;;20.20;58.50;;;;;;5058968;28;20045;-60
2022/12/28 12:59:50;;;;;;;2.55;0.30;;;20.20;58.40;;;;;;5059556;28;19920;-59
2022/12/28 13:02:34;;;;;;;1.48;0.45;;;20.20;58.50;;;;;;5058156;28;20123;-59
2022/12/28 13:05:02;;;;;;;0.90;0.32;;;20.20;58.60;;;;;;5059292;28;20115;-60
2022/12/28 13:07:28;;;;;;;1.25;0.40;;;20.20;58.60;;;;;;5060948;28;20041;-59
2022/12/28 13:09:55;;;;;;;2.15;0.38;;;20.20;58.60;;;;;;5056666;28;20041;-60
2022/12/28 13:12:21;;;;;;;2.20;0.40;;;20.20;58.60;;;;;;5060287;28;20048;-60
2022/12/28 13:14:47;;;;;;;0.88;0.30;;;20.20;58.60;;;;;;5057638;28;20056;-60
2022/12/28 13:17:17;;;;;;;0.60;0.30;;;20.20;58.60;;;;;;5056767;28;20764;-60
2022/12/28 13:19:42;;;;;;;1.48;0.40;;;20.20;58.60;;;;;;5061941;28;20518;-60
2022/12/28 13:22:27;;;;;;;2.92;0.40;;;20.20;58.60;;;;;;5058288;28;20044;-59
2022/12/28 13:24:53;;;;;;;0.57;0.30;;;20.30;58.70;;;;;;5058191;28;20047;-59